createdAt,value
2022-12-04T00:01:29.112Z,28.70
2022-12-04T00:04:01.255Z,25.17
2022-12-04T00:06:30.086Z,24.33
2022-12-04T00:08:58.001Z,30.25
2022-12-04T00:11:30.641Z,21.67
2022-12-04T00:14:06.189Z,36.15
2022-12-04T00:16:36.100Z,33.55
2022-12-04T00:19:05.469Z,34.30
2022-12-04T00:21:33.531Z,31.13
2022-12-04T00:24:02.044Z,31.17
2022-12-04T00:26:31.365Z,25.77
2022-12-04T00:28:59.827Z,27.98
2022-12-04T00:31:31.494Z,20.60
2022-12-04T00:34:00.842Z,27.40
2022-12-04T00:36:30.626Z,34.97
2022-12-04T00:39:01.041Z,26.23
2022-12-04T00:41:34.047Z,29.73
2022-12-04T00:44:05.139Z,31.67
2022-12-04T00:46:33.063Z,31.05
2022-12-04T00:49:02.797Z,25.40
2022-12-04T00:51:31.407Z,23.98
2022-12-04T00:54:02.577Z,24.08
2022-12-04T00:56:30.703Z,24.08
2022-12-04T00:59:01.484Z,21.70
2022-12-04T01:01:31.024Z,25.50
2022-12-04T01:03:59.099Z,22.35
2022-12-04T01:06:33.921Z,23.45
2022-12-04T01:09:05.442Z,29.73
2022-12-04T01:11:38.268Z,30.40
2022-12-04T01:14:06.407Z,23.08
2022-12-04T01:16:38.095Z,26.25
2022-12-04T01:19:12.356Z,19.15
2022-12-04T01:21:41.371Z,29.10
2022-12-04T01:24:09.877Z,25.52
2022-12-04T01:26:38.263Z,24.13
2022-12-04T01:29:06.661Z,24.92
2022-12-04T01:31:34.901Z,21.15
2022-12-04T01:34:03.123Z,22.77
2022-12-04T01:36:31.433Z,33.95
2022-12-04T01:38:59.518Z,20.80
2022-12-04T01:41:30.972Z,30.33
2022-12-04T01:44:09.553Z,33.45
2022-12-04T01:46:38.569Z,32.88
2022-12-04T01:49:14.107Z,32.63
2022-12-04T01:51:49.015Z,31.60
2022-12-04T01:54:36.610Z,30.75
2022-12-04T01:57:17.477Z,28.17
2022-12-04T01:59:53.860Z,27.08
2022-12-04T02:02:40.327Z,35.80
2022-12-04T02:05:13.326Z,24.98
2022-12-04T02:07:43.589Z,27.02
2022-12-04T02:10:12.651Z,34.15
2022-12-04T02:13:15.777Z,23.15
2022-12-04T02:16:18.307Z,32.42
2022-12-04T02:19:05.739Z,32.05
2022-12-04T02:21:40.587Z,23.35
2022-12-04T02:24:19.386Z,34.40
2022-12-04T02:27:03.915Z,22.50
2022-12-04T02:29:57.813Z,26.52
2022-12-04T02:32:33.452Z,22.75
2022-12-04T02:35:36.187Z,27.63
2022-12-04T02:38:14.524Z,31.70
2022-12-04T02:40:48.480Z,26.58
2022-12-04T02:43:34.063Z,38.92
2022-12-04T02:46:21.253Z,22.58
2022-12-04T02:48:53.541Z,31.20
2022-12-04T02:51:26.056Z,30.13
2022-12-04T02:54:00.748Z,35.83
2022-12-04T02:56:37.125Z,31.90
2022-12-04T02:59:20.541Z,26.73
2022-12-04T03:01:55.906Z,32.63
2022-12-04T03:04:30.762Z,25.25
2022-12-04T03:07:12.379Z,34.20
2022-12-04T03:10:09.409Z,30.88
2022-12-04T03:12:49.177Z,29.30
2022-12-04T03:15:34.423Z,24.25
2022-12-04T03:18:16.766Z,30.20
2022-12-04T03:20:50.177Z,22.55
2022-12-04T03:23:31.505Z,23.73
2022-12-04T03:26:15.861Z,31.05
2022-12-04T03:28:46.883Z,24.45
2022-12-04T03:31:19.470Z,31.33
2022-12-04T03:33:48.790Z,27.45
2022-12-04T03:36:31.258Z,26.80
2022-12-04T03:39:28.980Z,30.60
2022-12-04T03:42:06.128Z,24.42
2022-12-04T03:44:48.749Z,24.25
2022-12-04T03:47:51.530Z,24.85
2022-12-04T03:50:25.732Z,31.10
2022-12-04T03:53:22.660Z,24.58
2022-12-04T03:56:22.264Z,21.95
2022-12-04T03:59:00.562Z,32.22
2022-12-04T04:01:36.434Z,30.35
2022-12-04T04:04:07.685Z,28.63
2022-12-04T04:06:45.543Z,25.15
2022-12-04T04:09:19.585Z,27.88
2022-12-04T04:12:09.929Z,22.10
2022-12-04T04:15:10.553Z,33.97
2022-12-04T04:18:08.301Z,31.40
2022-12-04T04:21:08.774Z,20.63
2022-12-04T04:24:03.808Z,27.92
2022-12-04T04:26:42.260Z,37.17
2022-12-04T04:29:10.815Z,34.85
2022-12-04T04:32:07.584Z,35.08
2022-12-04T04:35:22.133Z,32.90
2022-12-04T04:38:08.349Z,33.90
2022-12-04T04:40:52.158Z,32.22
2022-12-04T04:43:47.196Z,36.33
2022-12-04T04:46:23.860Z,33.70
2022-12-04T04:48:57.001Z,29.38
2022-12-04T04:51:28.516Z,22.67
2022-12-04T04:54:00.769Z,28.25
2022-12-04T04:56:29.111Z,25.67
2022-12-04T04:58:57.372Z,25.10
2022-12-04T05:01:28.624Z,26.88
2022-12-04T05:03:57.155Z,29.13
2022-12-04T05:06:25.018Z,37.88
2022-12-04T05:08:52.911Z,26.58
2022-12-04T05:11:21.174Z,23.23
2022-12-04T05:13:49.106Z,33.13
2022-12-04T05:16:17.663Z,17.70
2022-12-04T05:19:05.913Z,30.92
2022-12-04T05:21:34.623Z,26.67
2022-12-04T05:24:02.817Z,26.55
2022-12-04T05:26:30.957Z,26.10
2022-12-04T05:28:59.301Z,27.42
2022-12-04T05:31:27.443Z,25.05
2022-12-04T05:33:57.149Z,40.45
2022-12-04T05:36:27.348Z,36.67
2022-12-04T05:38:55.610Z,32.95
2022-12-04T05:41:24.664Z,29.85
2022-12-04T05:43:52.894Z,32.10
2022-12-04T05:46:21.332Z,18.48
2022-12-04T05:48:51.701Z,31.27
2022-12-04T05:51:19.674Z,29.67
2022-12-04T05:53:47.690Z,30.27
2022-12-04T05:56:15.664Z,24.67
2022-12-04T05:58:43.481Z,22.77
2022-12-04T06:01:19.856Z,28.88
2022-12-04T06:03:47.933Z,27.35
2022-12-04T06:06:23.519Z,29.27
2022-12-04T06:08:53.918Z,22.73
2022-12-04T06:11:27.717Z,30.80
2022-12-04T06:13:56.839Z,29.30
2022-12-04T06:16:32.319Z,28.90
2022-12-04T06:19:05.331Z,25.17
2022-12-04T06:21:36.261Z,31.63
2022-12-04T06:24:05.458Z,35.78
2022-12-04T06:26:33.627Z,32.03
2022-12-04T06:29:02.112Z,19.85
2022-12-04T06:31:33.724Z,36.95
2022-12-04T06:34:02.143Z,32.25
2022-12-04T06:36:30.726Z,18.38
2022-12-04T06:38:58.790Z,25.98
2022-12-04T06:41:28.444Z,25.25
2022-12-04T06:43:57.774Z,26.55
2022-12-04T06:46:35.057Z,18.60
2022-12-04T06:49:03.643Z,25.98
2022-12-04T06:51:40.104Z,25.65
2022-12-04T06:54:09.507Z,20.75
2022-12-04T06:56:38.036Z,23.20
2022-12-04T06:59:06.294Z,16.67
2022-12-04T07:01:35.913Z,23.92
2022-12-04T07:04:04.722Z,25.02
2022-12-04T07:06:38.656Z,23.80
2022-12-04T07:09:13.739Z,19.63
2022-12-04T07:11:43.838Z,31.55
2022-12-04T07:14:13.247Z,25.90
2022-12-04T07:16:42.577Z,26.48
2022-12-04T07:19:14.391Z,22.05
2022-12-04T07:21:42.804Z,26.13
2022-12-04T07:24:16.830Z,18.25
2022-12-04T07:26:45.405Z,21.52
2022-12-04T07:29:14.402Z,21.80
2022-12-04T07:31:44.712Z,18.00
2022-12-04T07:34:12.752Z,16.33
2022-12-04T07:36:41.085Z,18.30
2022-12-04T07:39:10.375Z,20.10
2022-12-04T07:41:38.477Z,26.15
2022-12-04T07:44:08.617Z,21.63
2022-12-04T07:46:36.902Z,24.30
2022-12-04T07:49:04.841Z,17.27
2022-12-04T07:51:32.995Z,18.55
2022-12-04T07:54:03.979Z,27.77
2022-12-04T07:56:33.577Z,26.05
2022-12-04T07:59:02.375Z,19.85
2022-12-04T08:01:31.030Z,17.42
2022-12-04T08:04:01.214Z,19.65
2022-12-04T08:06:33.039Z,23.42
2022-12-04T08:09:06.183Z,19.27
2022-12-04T08:11:37.964Z,21.85
2022-12-04T08:14:09.105Z,21.85
2022-12-04T08:16:37.444Z,19.67
2022-12-04T08:19:05.786Z,20.45
2022-12-04T08:21:34.228Z,16.15
2022-12-04T08:24:03.237Z,17.63
2022-12-04T08:26:33.893Z,16.25
2022-12-04T08:29:03.189Z,13.73
2022-12-04T08:31:33.231Z,22.85
2022-12-04T08:34:05.103Z,20.85
2022-12-04T08:36:33.972Z,18.65
2022-12-04T08:39:02.092Z,21.38
2022-12-04T08:41:30.594Z,18.58
2022-12-04T08:43:59.020Z,17.30
2022-12-04T08:46:30.662Z,12.10
2022-12-04T08:51:31.763Z,14.30
2022-12-04T08:54:07.514Z,24.55
2022-12-04T08:56:37.692Z,22.83
2022-12-04T08:59:06.119Z,17.83
2022-12-04T09:01:34.143Z,21.42
2022-12-04T09:04:02.685Z,18.50
2022-12-04T09:06:30.940Z,17.90
2022-12-04T09:08:59.064Z,22.45
2022-12-04T09:11:30.972Z,18.75
2022-12-04T09:14:01.388Z,26.88
2022-12-04T09:16:32.303Z,14.52
2022-12-04T09:19:00.351Z,19.70
2022-12-04T09:21:28.567Z,20.65
2022-12-04T09:23:57.330Z,21.05
2022-12-04T09:26:31.874Z,20.00
2022-12-04T09:29:02.375Z,18.08
2022-12-04T09:31:31.713Z,26.90
2022-12-04T09:34:02.236Z,23.48
2022-12-04T09:36:31.012Z,27.80
2022-12-04T09:38:59.616Z,19.83
2022-12-04T09:42:03.884Z,23.45
2022-12-04T09:44:42.536Z,27.30
2022-12-04T09:47:29.916Z,23.38
2022-12-04T09:50:23.052Z,24.75
2022-12-04T09:53:00.128Z,27.88
2022-12-04T09:55:38.974Z,19.30
2022-12-04T09:58:19.424Z,19.63
2022-12-04T10:00:52.165Z,27.42
2022-12-04T10:03:25.598Z,25.45
2022-12-04T10:06:16.708Z,22.50
2022-12-04T10:08:50.990Z,24.95
2022-12-04T10:11:52.349Z,16.52
2022-12-04T10:14:45.958Z,16.90
2022-12-04T10:17:33.122Z,18.90
2022-12-04T10:20:27.775Z,18.45
2022-12-04T10:23:13.950Z,27.23
2022-12-04T10:25:43.406Z,14.55
2022-12-04T10:28:43.024Z,23.65
2022-12-04T10:31:15.179Z,19.65
2022-12-04T10:33:57.036Z,19.23
2022-12-04T10:39:32.068Z,21.83
2022-12-04T10:42:18.491Z,20.13
2022-12-04T10:44:49.278Z,25.25
2022-12-04T10:47:17.662Z,19.25
2022-12-04T10:49:46.843Z,27.17
2022-12-04T10:52:15.012Z,22.65
2022-12-04T10:55:02.281Z,15.20
2022-12-04T10:57:45.588Z,18.15
2022-12-04T11:00:35.265Z,28.15
2022-12-04T11:03:22.583Z,15.80
2022-12-04T11:05:57.779Z,23.05
2022-12-04T11:08:41.160Z,22.33
2022-12-04T11:11:14.947Z,21.80
2022-12-04T11:13:44.200Z,17.58
2022-12-04T11:16:44.933Z,22.65
2022-12-04T11:19:36.476Z,15.90
2022-12-04T11:22:18.037Z,23.33
2022-12-04T11:24:57.746Z,16.52
2022-12-04T11:27:35.449Z,22.58
2022-12-04T11:30:20.527Z,23.15
2022-12-04T11:32:49.020Z,16.85
2022-12-04T11:35:28.790Z,17.02
2022-12-04T11:38:10.413Z,25.25
2022-12-04T11:40:38.742Z,20.65
2022-12-04T11:43:21.049Z,22.25
2022-12-04T11:46:04.690Z,25.98
2022-12-04T11:48:46.092Z,36.47
2022-12-04T11:51:29.352Z,29.35
2022-12-04T11:54:15.259Z,22.15
2022-12-04T11:57:09.111Z,27.50
2022-12-04T12:00:02.690Z,21.42
2022-12-04T12:03:27.711Z,20.75
2022-12-04T12:06:21.005Z,23.77
2022-12-04T12:09:06.797Z,27.13
2022-12-04T12:12:10.440Z,22.00
2022-12-04T12:15:17.081Z,30.30
2022-12-04T12:18:16.457Z,27.38
2022-12-04T12:24:20.315Z,29.02
2022-12-04T12:27:17.857Z,25.15
2022-12-04T12:30:19.430Z,22.20
2022-12-04T12:33:25.273Z,21.60
2022-12-04T12:36:05.856Z,26.55
2022-12-04T12:38:57.994Z,26.90
2022-12-04T12:41:52.573Z,27.67
2022-12-04T12:44:46.852Z,22.95
2022-12-04T12:47:23.538Z,28.40
2022-12-04T12:50:04.249Z,18.38
2022-12-04T12:52:58.794Z,22.58
2022-12-04T12:55:44.941Z,20.63
2022-12-04T12:58:29.600Z,16.15
2022-12-04T13:01:38.695Z,16.92
2022-12-04T13:08:11.944Z,24.75
2022-12-04T13:11:00.984Z,11.63
2022-12-04T13:14:00.049Z,18.00
2022-12-04T13:16:58.177Z,17.80
2022-12-04T13:19:53.040Z,22.27
2022-12-04T13:23:11.144Z,20.40
2022-12-04T13:26:21.683Z,24.10
2022-12-04T13:29:13.877Z,26.65
2022-12-04T13:31:59.281Z,20.08
2022-12-04T13:38:41.741Z,17.83
2022-12-04T13:41:18.925Z,20.42
2022-12-04T13:44:06.918Z,18.02
2022-12-04T13:46:49.894Z,10.85
2022-12-04T13:49:17.980Z,14.43
2022-12-04T13:51:48.285Z,13.25
2022-12-04T13:54:16.287Z,15.85
2022-12-04T13:56:51.631Z,16.05
2022-12-04T13:59:28.515Z,16.98
2022-12-04T14:02:37.928Z,18.58
2022-12-04T14:05:13.398Z,17.30
2022-12-04T14:08:08.084Z,12.73
2022-12-04T14:10:40.442Z,17.27
2022-12-04T14:13:28.288Z,16.65
2022-12-04T14:16:45.089Z,22.52
2022-12-04T14:19:34.879Z,12.88
2022-12-04T14:22:06.873Z,18.42
2022-12-04T14:24:40.486Z,23.33
2022-12-04T14:27:42.959Z,20.20
2022-12-04T14:30:25.043Z,10.23
2022-12-04T14:33:30.079Z,18.60
2022-12-04T14:36:18.288Z,17.70
2022-12-04T14:38:51.268Z,20.40
2022-12-04T14:41:30.110Z,19.88
2022-12-04T14:44:00.750Z,15.93
2022-12-04T14:47:00.260Z,20.73
2022-12-04T14:49:46.703Z,20.33
2022-12-04T14:52:41.701Z,22.10
2022-12-04T14:56:08.569Z,18.45
2022-12-04T14:58:39.223Z,15.80
2022-12-04T15:01:29.652Z,14.20
2022-12-04T15:04:22.809Z,17.35
2022-12-04T15:06:59.682Z,16.05
2022-12-04T15:09:47.808Z,13.23
2022-12-04T15:12:34.393Z,15.82
2022-12-04T15:15:19.795Z,14.07
2022-12-04T15:18:10.099Z,14.55
2022-12-04T15:20:59.359Z,20.02
2022-12-04T15:23:41.739Z,17.83
2022-12-04T15:26:20.792Z,18.83
2022-12-04T15:29:01.438Z,20.65
2022-12-04T15:31:43.922Z,22.80
2022-12-04T15:34:18.217Z,25.60
2022-12-04T15:37:08.123Z,30.08
2022-12-04T15:39:38.201Z,13.45
2022-12-04T15:42:22.615Z,21.58
2022-12-04T15:45:04.970Z,24.35
2022-12-04T15:48:01.412Z,26.73
2022-12-04T15:50:31.611Z,22.33
2022-12-04T15:53:06.795Z,20.70
2022-12-04T15:55:53.271Z,16.63
2022-12-04T15:58:42.139Z,14.98
2022-12-04T16:01:15.800Z,14.32
2022-12-04T16:03:44.169Z,14.20
2022-12-04T16:06:28.642Z,19.83
2022-12-04T16:09:22.289Z,23.15
2022-12-04T16:12:22.930Z,16.02
2022-12-04T16:14:56.332Z,15.23
2022-12-04T16:17:34.249Z,16.05
2022-12-04T16:20:10.861Z,17.05
2022-12-04T16:22:44.456Z,17.10
2022-12-04T16:25:18.056Z,21.08
2022-12-04T16:27:58.547Z,16.57
2022-12-04T16:30:39.889Z,15.30
2022-12-04T16:33:31.222Z,15.00
2022-12-04T16:36:36.449Z,22.38
2022-12-04T16:39:41.038Z,20.58
2022-12-04T16:45:38.031Z,10.82
2022-12-04T16:48:10.531Z,15.73
2022-12-04T16:50:45.003Z,22.88
2022-12-04T16:53:29.463Z,20.38
2022-12-04T16:56:11.093Z,13.55
2022-12-04T16:58:45.479Z,16.70
2022-12-04T17:01:45.912Z,15.77
2022-12-04T17:04:23.273Z,15.43
2022-12-04T17:07:18.316Z,16.58
2022-12-04T17:10:07.761Z,22.90
2022-12-04T17:12:51.259Z,14.23
2022-12-04T17:15:48.509Z,15.10
2022-12-04T17:18:21.578Z,13.35
2022-12-04T17:20:50.875Z,16.70
2022-12-04T17:23:18.924Z,16.10
2022-12-04T17:25:49.247Z,19.75
2022-12-04T17:28:19.053Z,18.83
2022-12-04T17:30:47.525Z,22.77
2022-12-04T17:33:16.939Z,19.00
2022-12-04T17:35:45.202Z,17.60
2022-12-04T17:38:13.525Z,13.57
2022-12-04T17:40:41.793Z,16.65
2022-12-04T17:43:10.080Z,18.00
2022-12-04T17:45:43.769Z,16.30
2022-12-04T17:48:11.934Z,17.50
2022-12-04T17:50:40.179Z,22.38
2022-12-04T17:53:08.266Z,14.20
2022-12-04T17:55:36.797Z,13.48
2022-12-04T17:58:05.032Z,19.45
2022-12-04T18:00:43.969Z,12.38
2022-12-04T18:03:27.237Z,15.90
2022-12-04T18:06:19.979Z,13.88
2022-12-04T18:09:04.016Z,24.95
2022-12-04T18:11:43.911Z,15.65
2022-12-04T18:14:25.752Z,14.13
2022-12-04T18:17:01.627Z,17.77
2022-12-04T18:19:41.820Z,17.33
2022-12-04T18:22:30.497Z,17.10
2022-12-04T18:25:04.604Z,18.85
2022-12-04T18:27:42.050Z,15.40
2022-12-04T18:30:13.612Z,17.70
2022-12-04T18:32:44.480Z,17.08
2022-12-04T18:35:15.245Z,15.93
2022-12-04T18:37:43.290Z,14.85
2022-12-04T18:40:12.105Z,17.60
2022-12-04T18:42:40.187Z,12.70
2022-12-04T18:45:09.236Z,18.35
2022-12-04T18:47:37.254Z,18.02
2022-12-04T18:50:06.221Z,18.48
2022-12-04T18:52:37.864Z,16.23
2022-12-04T18:55:16.884Z,16.23
2022-12-04T18:57:45.218Z,15.65
2022-12-04T19:00:22.924Z,12.63
2022-12-04T19:02:56.891Z,11.40
2022-12-04T19:05:25.688Z,17.08
2022-12-04T19:07:53.984Z,16.95
2022-12-04T19:10:22.420Z,13.70
2022-12-04T19:12:54.297Z,14.82
2022-12-04T19:15:25.166Z,14.32
2022-12-04T19:18:01.550Z,15.82
2022-12-04T19:20:35.513Z,15.05
2022-12-04T19:23:07.099Z,19.40
2022-12-04T19:28:05.779Z,14.65
2022-12-04T19:30:36.418Z,11.45
2022-12-04T19:33:04.312Z,15.13
2022-12-04T19:35:32.400Z,17.63
2022-12-04T19:38:00.919Z,14.20
2022-12-04T19:40:29.219Z,13.32
2022-12-04T19:43:02.944Z,18.63
2022-12-04T19:45:31.399Z,20.83
2022-12-04T19:47:59.516Z,24.30
2022-12-04T19:50:28.315Z,20.30
2022-12-04T19:52:58.689Z,21.38
2022-12-04T19:55:26.932Z,19.08
2022-12-04T19:57:57.887Z,15.43
2022-12-04T20:00:26.582Z,14.27
2022-12-04T20:02:54.750Z,18.60
2022-12-04T20:05:26.025Z,18.27
2022-12-04T20:10:28.259Z,19.75
2022-12-04T20:12:58.281Z,19.13
2022-12-04T20:15:26.404Z,17.27
2022-12-04T20:17:56.964Z,19.77
2022-12-04T20:20:24.992Z,22.83
2022-12-04T20:22:53.239Z,20.92
2022-12-04T20:25:22.235Z,16.88
2022-12-04T20:27:51.879Z,18.73
2022-12-04T20:30:19.917Z,15.80
2022-12-04T20:32:52.227Z,14.77
2022-12-04T20:35:20.466Z,18.17
2022-12-04T20:37:51.230Z,17.13
2022-12-04T20:40:19.404Z,19.02
2022-12-04T20:42:49.641Z,18.20
2022-12-04T20:45:18.117Z,17.10
2022-12-04T20:47:50.779Z,16.38
2022-12-04T20:50:19.501Z,19.95
2022-12-04T20:52:50.738Z,26.40
2022-12-04T20:55:19.012Z,14.25
2022-12-04T20:57:47.672Z,25.35
2022-12-04T21:00:16.544Z,11.48
2022-12-04T21:02:47.540Z,16.88
2022-12-04T21:05:18.062Z,20.42
2022-12-04T21:07:46.386Z,19.95
2022-12-04T21:10:14.464Z,19.67
2022-12-04T21:13:03.000Z,23.52
2022-12-04T21:15:49.661Z,18.45
2022-12-04T21:18:17.988Z,21.05
2022-12-04T21:20:45.998Z,19.45
2022-12-04T21:23:14.766Z,21.08
2022-12-04T21:25:46.269Z,21.60
2022-12-04T21:28:14.354Z,22.08
2022-12-04T21:30:44.505Z,20.33
2022-12-04T21:33:45.526Z,17.75
2022-12-04T21:37:03.248Z,12.25
2022-12-04T21:39:35.099Z,19.08
2022-12-04T21:42:31.381Z,21.42
2022-12-04T21:45:15.198Z,23.17
2022-12-04T21:47:53.979Z,29.15
2022-12-04T21:53:06.398Z,21.73
2022-12-04T21:55:54.464Z,36.80
2022-12-04T21:58:31.052Z,25.30
2022-12-04T22:01:22.338Z,18.02
2022-12-04T22:04:06.334Z,17.67
2022-12-04T22:06:50.884Z,13.88
2022-12-04T22:09:27.534Z,19.88
2022-12-04T22:12:47.964Z,13.57
2022-12-04T22:15:14.693Z,16.13
2022-12-04T22:17:54.968Z,16.52
2022-12-04T22:20:29.043Z,13.45
2022-12-04T22:23:08.092Z,15.32
2022-12-04T22:25:47.143Z,14.60
2022-12-04T22:28:28.048Z,23.48
2022-12-04T22:31:07.878Z,21.52
2022-12-04T22:33:44.863Z,18.85
2022-12-04T22:36:20.174Z,16.98
2022-12-04T22:39:10.941Z,16.20
2022-12-04T22:41:56.347Z,12.57
2022-12-04T22:44:34.718Z,14.02
2022-12-04T22:47:04.876Z,18.33
2022-12-04T22:49:48.008Z,13.48
2022-12-04T22:52:47.387Z,14.23
2022-12-04T22:55:26.411Z,17.15
2022-12-04T22:58:04.924Z,18.70
2022-12-04T23:00:42.265Z,15.07
2022-12-04T23:03:22.167Z,11.15
2022-12-04T23:06:05.189Z,12.07
2022-12-04T23:08:35.709Z,9.93
2022-12-04T23:11:26.125Z,11.57
2022-12-04T23:14:06.888Z,13.68
2022-12-04T23:16:43.097Z,13.20
2022-12-04T23:19:16.861Z,12.55
2022-12-04T23:21:49.642Z,12.25
2022-12-04T23:24:21.482Z,14.57
2022-12-04T23:26:52.819Z,12.27
2022-12-04T23:29:51.348Z,12.15
2022-12-04T23:32:09.190Z,13.95
2022-12-04T23:34:37.187Z,16.02
2022-12-04T23:37:10.038Z,17.02
2022-12-04T23:39:38.282Z,17.75
2022-12-04T23:42:06.340Z,11.98
2022-12-04T23:44:34.110Z,11.85
2022-12-04T23:47:02.369Z,11.98
2022-12-04T23:49:30.575Z,13.20
2022-12-04T23:51:58.626Z,17.50
2022-12-04T23:54:36.406Z,10.95
2022-12-04T23:57:04.808Z,9.98
2022-12-04T23:59:35.839Z,14.50
